Time;durP1;ratioP1;P1;durP2;ratioP2;P2;SDS_P1;SDS_P2;PMS_P1;PMS_P2;Temp;Humidity;BMP_temperature;BMP_pressure;BME280_temperature;BME280_humidity;BME280_pressure;Samples;Min_cycle;Max_cycle;Signal;HPM_P1;HPM_P2
2021/10/28 00:13:55;;;;;;;7.60;5.00;;;;;;;10.48;66.40;100729.44;5053504;28;20045;-85
2021/10/28 00:16:27;;;;;;;8.45;5.00;;;;;;;10.47;66.56;100732.13;5056085;28;20041;-85
2021/10/28 00:19:00;;;;;;;7.85;4.78;;;;;;;10.47;66.71;100724.31;5059798;28;20045;-85
2021/10/28 00:21:30;;;;;;;6.78;4.25;;;;;;;10.47;66.56;100726.91;5059787;28;20049;-85
2021/10/28 00:24:04;;;;;;;6.97;4.45;;;;;;;10.44;66.70;100716.63;5067187;28;20041;-85
2021/10/28 00:26:33;;;;;;;7.05;4.55;;;;;;;10.41;66.42;100728.03;5053034;28;20095;-84
2021/10/28 00:29:05;;;;;;;6.95;4.70;;;;;;;10.44;66.29;100720.09;5053452;28;20057;-85
2021/10/28 00:31:35;;;;;;;6.43;4.85;;;;;;;10.38;66.67;100720.31;5064289;28;20090;-85
2021/10/28 00:34:03;;;;;;;5.57;3.83;;;;;;;10.40;66.59;100726.34;5073633;28;20070;-85
2021/10/28 00:36:31;;;;;;;4.90;3.58;;;;;;;10.40;66.35;100721.13;5072893;28;20044;-84
2021/10/28 00:38:58;;;;;;;6.07;4.18;;;;;;;10.33;66.72;100714.44;5073331;28;20086;-85
2021/10/28 00:41:25;;;;;;;5.03;3.83;;;;;;;10.39;66.20;100724.66;5066232;28;20103;-84
2021/10/28 00:43:55;;;;;;;14.30;6.05;;;;;;;10.36;66.74;100719.53;5053125;28;20099;-85
2021/10/28 00:46:24;;;;;;;6.43;4.43;;;;;;;10.28;67.36;100720.75;5053014;28;20037;-85
2021/10/28 00:48:51;;;;;;;4.93;3.95;;;;;;;10.14;67.91;100713.50;5056246;28;20048;-85
2021/10/28 00:51:20;;;;;;;4.55;4.07;;;;;;;10.20;67.84;100719.28;5072794;28;20037;-84
2021/10/28 00:53:49;;;;;;;6.25;3.63;;;;;;;10.22;67.57;100711.41;5073026;28;20429;-84
2021/10/28 00:56:17;;;;;;;4.38;3.63;;;;;;;10.15;68.08;100715.19;5073299;28;20305;-85
2021/10/28 00:58:43;;;;;;;5.65;3.95;;;;;;;10.18;67.54;100702.88;5073136;28;20053;-85
2021/10/28 01:01:10;;;;;;;7.18;4.05;;;;;;;10.22;67.25;100701.84;5071141;28;20442;-84
2021/10/28 01:03:40;;;;;;;8.15;4.55;;;;;;;10.21;67.58;100709.72;5071476;28;20056;-84
2021/10/28 01:06:09;;;;;;;7.15;5.25;;;;;;;10.15;67.45;100709.97;5073006;28;20071;-84
2021/10/28 01:08:39;;;;;;;7.78;4.63;;;;;;;10.10;68.36;100704.09;5066415;28;20357;-85
2021/10/28 01:11:08;;;;;;;5.97;4.50;;;;;;;10.06;68.27;100707.72;5086755;28;20052;-85
2021/10/28 01:13:35;;;;;;;7.22;5.18;;;;;;;10.03;68.38;100710.47;5089667;28;20029;-85
2021/10/28 01:16:04;;;;;;;5.72;3.97;;;;;;;9.92;68.81;100703.94;5090122;28;20024;-85
2021/10/28 01:18:33;;;;;;;6.35;4.47;;;;;;;9.92;68.99;100708.31;5088595;28;20044;-85
2021/10/28 01:21:00;;;;;;;8.98;4.10;;;;;;;9.84;69.45;100705.16;5088978;28;20040;-84
2021/10/28 01:23:27;;;;;;;5.70;5.07;;;;;;;9.82;69.49;100713.03;5089311;28;20037;-85
2021/10/28 01:26:05;;;;;;;13.70;7.82;;;;;;;9.79;70.20;100715.72;5088308;28;20039;-85
2021/10/28 01:28:33;;;;;;;12.80;8.13;;;;;;;9.78;70.70;100702.78;5083758;28;20053;-84
2021/10/28 01:31:06;;;;;;;19.33;8.30;;;;;;;9.73;70.88;100705.56;5088284;28;20025;-85
2021/10/28 01:33:34;;;;;;;9.23;5.75;;;;;;;9.65;70.95;100712.84;5080986;28;20439;-85
2021/10/28 01:36:01;;;;;;;6.57;4.82;;;;;;;9.59;71.05;100705.28;5067915;28;20045;-84
2021/10/28 01:38:27;;;;;;;6.10;5.05;;;;;;;9.53;71.04;100705.47;5068500;28;20053;-84
2021/10/28 01:40:57;;;;;;;7.35;5.35;;;;;;;9.43;71.49;100694.59;5067184;28;20041;-85
2021/10/28 01:43:25;;;;;;;9.77;7.10;;;;;;;9.19;72.97;100705.00;5064716;28;20097;-84
2021/10/28 01:45:52;;;;;;;6.28;4.93;;;;;;;9.18;73.50;100694.66;5068277;28;20087;-85
2021/10/28 01:48:19;;;;;;;6.95;5.40;;;;;;;9.23;73.13;100686.69;5052006;28;20483;-85
2021/10/28 01:50:48;;;;;;;10.48;5.35;;;;;;;9.28;72.37;100683.00;5052265;28;20103;-84
2021/10/28 01:53:15;;;;;;;7.25;4.55;;;;;;;9.34;72.12;100682.78;5052378;28;20045;-84
2021/10/28 01:55:43;;;;;;;7.70;5.18;;;;;;;9.33;72.42;100680.25;5057574;28;20048;-85
2021/10/28 01:58:14;;;;;;;5.28;4.30;;;;;;;9.34;71.99;100679.34;5071781;28;20040;-84
2021/10/28 02:00:43;;;;;;;6.07;5.05;;;;;;;9.27;72.19;100685.66;5065292;28;20049;-84
2021/10/28 02:03:11;;;;;;;9.90;8.05;;;;;;;8.89;75.03;100683.59;5056175;28;20135;-84
2021/10/28 02:05:38;;;;;;;9.32;7.70;;;;;;;8.91;75.63;100688.72;5068666;28;20083;-84
2021/10/28 02:08:04;;;;;;;12.35;9.02;;;;;;;8.88;76.25;100686.22;5075849;28;20410;-84
2021/10/28 02:10:31;;;;;;;12.55;9.80;;;;;;;8.78;77.04;100680.50;5073824;28;20087;-84
2021/10/28 02:12:59;;;;;;;14.30;9.38;;;;;;;8.84;76.60;100671.63;5056654;28;22385;-84
2021/10/28 02:15:26;;;;;;;15.52;10.23;;;;;;;8.92;76.45;100672.22;5055620;28;20499;-85
2021/10/28 02:17:53;;;;;;;14.27;9.40;;;;;;;8.78;77.05;100672.69;5056092;28;20041;-86
2021/10/28 02:20:20;;;;;;;12.23;8.80;;;;;;;8.81;76.73;100675.19;5066287;28;20118;-85
2021/10/28 02:22:48;;;;;;;13.77;7.68;;;;;;;8.80;76.66;100673.50;5055927;28;20491;-85
2021/10/28 02:25:16;;;;;;;10.43;7.25;;;;;;;8.78;76.70;100672.69;5054482;28;20041;-85
2021/10/28 02:27:51;;;;;;;9.13;5.95;;;;;;;8.74;76.82;100668.53;5070540;28;20072;-85
2021/10/28 02:30:19;;;;;;;8.57;6.60;;;;;;;8.74;76.88;100678.09;5057295;28;20557;-84
2021/10/28 02:32:47;;;;;;;8.25;6.22;;;;;;;8.79;76.65;100681.34;5054690;28;20041;-84
2021/10/28 02:35:15;;;;;;;8.70;6.97;;;;;;;8.75;76.92;100674.56;5055432;28;20052;-82
2021/10/28 02:37:43;;;;;;;9.35;7.18;;;;;;;8.69;77.09;100670.44;5058790;28;20115;-84
2021/10/28 02:40:11;;;;;;;9.25;7.07;;;;;;;8.70;77.57;100672.13;5064138;28;20079;-84
2021/10/28 02:42:39;;;;;;;7.32;4.97;;;;;;;8.65;77.33;100667.09;5055180;28;20545;-84
2021/10/28 02:45:08;;;;;;;5.47;4.85;;;;;;;8.57;77.84;100663.06;5068738;28;20083;-84
2021/10/28 02:47:35;;;;;;;7.15;4.15;;;;;;;8.58;77.60;100662.19;5053746;28;20453;-85
2021/10/28 02:50:03;;;;;;;7.25;5.97;;;;;;;8.48;77.86;100659.06;5057478;28;20041;-86
2021/10/28 02:52:29;;;;;;;5.82;4.93;;;;;;;8.53;77.49;100669.28;5075305;28;20433;-84
2021/10/28 02:54:56;;;;;;;9.10;4.43;;;;;;;8.55;77.44;100668.31;5072457;28;20123;-84
2021/10/28 02:57:23;;;;;;;5.13;4.60;;;;;;;8.57;77.69;100668.25;5054864;28;20087;-84
2021/10/28 02:59:50;;;;;;;7.10;4.35;;;;;;;8.57;77.67;100660.47;5055198;28;20095;-84
2021/10/28 03:02:17;;;;;;;8.23;4.45;;;;;;;8.51;77.90;100665.88;5058582;28;20099;-84
2021/10/28 03:04:44;;;;;;;6.78;4.57;;;;;;;8.51;78.02;100663.28;5054834;28;20069;-85
2021/10/28 03:07:11;;;;;;;5.97;4.63;;;;;;;8.36;78.74;100667.25;5055312;28;20087;-85
2021/10/28 03:09:37;;;;;;;7.82;4.65;;;;;;;8.39;78.71;100662.81;5054661;28;20147;-84
2021/10/28 03:12:06;;;;;;;5.80;4.35;;;;;;;8.45;78.18;100656.53;5072420;28;20041;-84
2021/10/28 03:14:55;;;;;;;5.93;4.43;;;;;;;8.51;77.92;100655.47;5074273;28;20043;-84
2021/10/28 03:17:32;;;;;;;6.25;4.60;;;;;;;8.40;77.71;100656.69;5064696;28;20049;-84
2021/10/28 03:27:48;;;;;;;5.28;4.35;;;;;;;8.39;78.41;100664.56;5055734;28;20071;-83
2021/10/28 03:30:14;;;;;;;5.28;4.15;;;;;;;8.30;78.61;100668.28;5061467;28;20483;-83
2021/10/28 03:32:41;;;;;;;5.47;4.15;;;;;;;8.30;79.00;100672.63;5054393;28;20454;-83
2021/10/28 03:35:14;;;;;;;5.10;4.10;;;;;;;8.31;79.02;100667.41;5054551;28;20074;-85
2021/10/28 03:48:45;;;;;;;4.03;3.63;;;;;;;8.31;78.83;100663.91;5054003;28;20381;-84
2021/10/28 04:31:13;;;;;;;6.32;4.25;;;;;;;7.94;81.63;100654.78;5053125;28;20103;-85
2021/10/28 04:33:42;;;;;;;7.88;4.15;;;;;;;7.90;81.89;100655.78;5053354;28;20056;-84
2021/10/28 04:36:12;;;;;;;7.22;4.45;;;;;;;7.82;82.43;100661.19;5053292;28;20090;-85
2021/10/28 04:38:39;;;;;;;6.82;4.45;;;;;;;7.86;82.33;100657.63;5054358;28;20036;-84
2021/10/28 04:41:06;;;;;;;4.50;4.05;;;;;;;7.94;81.79;100654.78;5059938;28;20537;-84
2021/10/28 04:43:33;;;;;;;8.02;5.32;;;;;;;7.99;81.10;100650.28;5057699;28;20045;-83
2021/10/28 04:45:59;;;;;;;7.18;5.18;;;;;;;8.01;81.30;100650.22;5058992;28;20086;-84
2021/10/28 04:48:27;;;;;;;6.78;4.40;;;;;;;7.98;81.50;100650.31;5058161;28;20033;-84
2021/10/28 04:50:54;;;;;;;8.07;4.78;;;;;;;7.96;81.05;100647.78;5064555;28;20071;-84
2021/10/28 04:53:20;;;;;;;7.07;5.55;;;;;;;8.00;81.16;100641.59;5062057;28;20077;-84
2021/10/28 04:55:47;;;;;;;7.85;4.63;;;;;;;7.99;81.42;100644.22;5064873;28;20041;-84
2021/10/28 04:58:14;;;;;;;6.43;4.70;;;;;;;7.89;81.55;100641.09;5057260;28;20075;-84
2021/10/28 05:00:40;;;;;;;6.05;5.38;;;;;;;7.82;82.00;100637.84;5061869;28;20470;-84
2021/10/28 05:03:07;;;;;;;5.90;4.57;;;;;;;7.94;81.48;100640.97;5071740;28;20041;-84
2021/10/28 05:05:34;;;;;;;11.02;5.13;;;;;;;8.03;81.35;100638.03;5063911;28;20498;-84
2021/10/28 05:08:00;;;;;;;9.55;4.93;;;;;;;7.87;81.61;100638.53;5059292;28;20079;-85
2021/10/28 05:10:30;;;;;;;6.15;4.55;;;;;;;7.85;82.08;100636.91;5063014;28;20438;-84
2021/10/28 05:12:57;;;;;;;7.03;4.65;;;;;;;8.00;81.51;100639.00;5071811;28;20097;-89
2021/10/28 05:15:24;;;;;;;6.90;5.00;;;;;;;8.08;80.65;100634.38;5065835;28;20032;-88
2021/10/28 05:17:51;;;;;;;8.90;5.13;;;;;;;8.14;80.70;100641.13;5075935;28;20040;-87
2021/10/28 05:20:20;;;;;;;6.60;4.75;;;;;;;8.02;80.95;100638.94;5068178;28;20126;-89
2021/10/28 05:22:47;;;;;;;7.50;4.88;;;;;;;8.07;80.39;100639.66;5075417;28;20090;-89
2021/10/28 05:25:14;;;;;;;6.90;4.75;;;;;;;8.06;80.43;100638.78;5071332;28;20087;-89
2021/10/28 05:27:40;;;;;;;5.05;4.57;;;;;;;8.01;80.88;100639.84;5072248;28;20059;-90
2021/10/28 05:30:09;;;;;;;9.52;5.13;;;;;;;8.05;80.83;100639.69;5075479;28;20135;-89
2021/10/28 05:32:35;;;;;;;5.60;4.70;;;;;;;7.96;81.18;100641.75;5071919;28;20033;-84
2021/10/28 05:35:02;;;;;;;6.72;4.93;;;;;;;7.99;81.43;100641.63;5075097;28;20544;-85
2021/10/28 05:37:29;;;;;;;8.52;5.38;;;;;;;7.91;81.57;100633.25;5075760;28;20095;-84
2021/10/28 05:39:59;;;;;;;7.95;5.00;;;;;;;7.99;81.11;100641.63;5066549;28;20563;-85
2021/10/28 05:42:28;;;;;;;9.20;5.30;;;;;;;8.05;80.57;100644.06;5070331;28;20135;-85
2021/10/28 05:44:57;;;;;;;7.32;4.88;;;;;;;8.04;80.30;100644.91;5070569;28;20037;-87
2021/10/28 05:47:24;;;;;;;6.47;3.95;;;;;;;7.93;80.83;100641.84;5066926;28;20131;-85
2021/10/28 05:50:16;;;;;;;5.68;4.47;;;;;;;7.97;81.08;100648.63;5070407;28;20036;-87
2021/10/28 05:52:45;;;;;;;7.95;4.43;;;;;;;7.93;81.21;100645.28;5068443;28;20047;-86
2021/10/28 05:55:13;;;;;;;6.43;4.63;;;;;;;7.86;81.63;100649.81;5063159;28;20033;-86
2021/10/28 05:57:40;;;;;;;5.72;4.15;;;;;;;7.87;81.61;100646.31;5052181;28;20045;-80
2021/10/28 06:00:08;;;;;;;5.68;3.83;;;;;;;7.91;81.56;100654.03;5061873;28;20048;-86
2021/10/28 06:02:38;;;;;;;8.75;4.60;;;;;;;8.01;81.38;100653.69;5060292;28;20562;-87
2021/10/28 06:05:06;;;;;;;6.88;4.97;;;;;;;8.16;80.58;100654.06;5064139;28;20037;-93
2021/10/28 06:07:34;;;;;;;8.00;6.10;;;;;;;8.22;80.18;100656.47;5063672;28;20041;-93
2021/10/28 06:10:02;;;;;;;12.48;5.95;;;;;;;8.28;79.58;100654.50;5092110;28;20037;-90
2021/10/28 06:12:33;;;;;;;13.00;5.70;;;;;;;8.35;79.28;100655.13;5065488;28;20440;-92
2021/10/28 06:15:02;;;;;;;7.00;5.43;;;;;;;8.40;78.78;100653.25;5061126;28;20348;-91
2021/10/28 06:17:36;;;;;;;8.85;5.80;;;;;;;8.44;79.25;100654.84;5066864;28;20096;-86
2021/10/28 06:20:03;;;;;;;7.88;4.90;;;;;;;8.39;79.16;100660.22;5057589;28;20094;-85
2021/10/28 06:22:31;;;;;;;10.70;4.93;;;;;;;8.45;79.00;100671.28;5063824;28;20033;-86
2021/10/28 06:24:58;;;;;;;10.50;5.95;;;;;;;8.52;78.78;100668.44;5065925;28;20094;-86
2021/10/28 06:27:25;;;;;;;8.80;6.85;;;;;;;8.55;79.00;100672.66;5060136;28;20493;-86
2021/10/28 06:29:52;;;;;;;17.58;9.52;;;;;;;8.61;78.12;100667.25;5065118;28;20057;-87
2021/10/28 06:32:19;;;;;;;15.98;10.57;;;;;;;8.60;77.96;100666.41;5061286;28;20044;-89
2021/10/28 06:34:47;;;;;;;14.38;10.18;;;;;;;8.64;78.39;100672.34;5058701;28;20782;-89
2021/10/28 06:37:14;;;;;;;9.75;7.40;;;;;;;8.67;78.62;100672.22;5057810;28;20067;-91
2021/10/28 06:39:42;;;;;;;19.33;9.00;;;;;;;8.76;78.27;100677.13;5061499;28;20052;-85
2021/10/28 06:42:12;;;;;;;8.52;6.68;;;;;;;8.77;78.37;100678.81;5059548;28;20075;-84
2021/10/28 06:44:44;;;;;;;9.15;6.55;;;;;;;8.84;78.66;100680.31;5060557;28;20507;-83
2021/10/28 06:47:11;;;;;;;11.90;3.90;;;;;;;8.76;78.87;100682.31;5052315;28;20107;-85
2021/10/28 06:49:41;;;;;;;6.47;4.95;;;;;;;8.84;78.74;100684.63;5067252;28;20399;-84
2021/10/28 06:52:11;;;;;;;6.30;4.85;;;;;;;8.85;79.26;100681.16;5059978;28;20337;-85
2021/10/28 06:54:41;;;;;;;8.48;6.47;;;;;;;9.01;78.57;100694.44;5071476;28;20098;-85
2021/10/28 07:02:39;;;;;;;;;;;;;;;9.21;77.10;100693.69;5074630;28;20376;-84
2021/10/28 07:05:08;;;;;;;8.90;6.38;;;;;;;9.29;77.84;100692.50;5069497;28;19963;-85
2021/10/28 07:07:35;;;;;;;9.35;6.50;;;;;;;9.32;78.07;100687.19;5072418;28;20347;-80
2021/10/28 07:10:16;;;;;;;37.08;7.45;;;;;;;9.48;78.26;100703.09;5061257;28;20041;-82
2021/10/28 07:25:52;;;;;;;12.60;9.48;;;;;;;10.00;74.39;100708.00;5072022;28;20032;-82
2021/10/28 07:28:27;;;;;;;10.65;8.07;;;;;;;10.08;73.21;100696.34;5070413;28;20041;-82
2021/10/28 07:31:25;;;;;;;10.68;8.60;;;;;;;10.22;73.42;100695.78;5060137;28;20094;-82
2021/10/28 08:17:56;;;;;;;22.13;11.02;;;;;;;11.26;70.46;100691.28;5062208;28;20181;-83
2021/10/28 08:20:10;;;;;;;19.90;9.45;;;;;;;11.50;68.78;100684.94;5064934;28;20062;-82
2021/10/28 08:22:49;;;;;;;18.33;10.25;;;;;;;11.54;68.00;100690.84;5064994;28;20041;-83
2021/10/28 08:30:48;;;;;;;13.45;8.57;;;;;;;11.66;68.41;100684.19;5060850;28;20045;-82
2021/10/28 08:33:19;;;;;;;13.30;8.13;;;;;;;11.63;67.36;100679.13;5061777;28;20063;-84
2021/10/28 08:35:53;;;;;;;13.93;9.82;;;;;;;11.66;67.84;100676.38;5062744;28;20499;-83
2021/10/28 08:38:22;;;;;;;20.27;9.75;;;;;;;11.65;67.51;100672.91;5058785;28;20077;-86
2021/10/28 08:40:54;;;;;;;21.55;9.85;;;;;;;11.75;67.64;100678.53;5071680;28;20127;-84
2021/10/28 08:43:22;;;;;;;19.75;10.50;;;;;;;11.76;67.66;100677.63;5068878;28;20102;-84
2021/10/28 08:45:52;;;;;;;18.45;9.20;;;;;;;11.82;68.34;100673.91;5066755;28;20099;-85
2021/10/28 08:48:24;;;;;;;18.63;8.98;;;;;;;11.74;68.01;100671.63;5062384;28;20146;-85
2021/10/28 08:51:03;;;;;;;15.68;10.07;;;;;;;11.88;67.65;100663.16;5068637;28;20059;-85
2021/10/28 08:53:44;;;;;;;15.32;8.82;;;;;;;11.93;67.66;100664.66;5066548;28;20041;-82
2021/10/28 08:56:45;;;;;;;15.88;9.88;;;;;;;11.98;67.35;100662.63;5066942;28;20479;-84
2021/10/28 08:59:28;;;;;;;12.77;9.27;;;;;;;12.00;66.49;100657.34;5065168;28;20049;-82
2021/10/28 09:25:10;;;;;;;14.88;9.55;;;;;;;12.52;66.06;100660.78;5063558;28;20073;-87
2021/10/28 09:30:37;;;;;;;16.15;11.05;;;;;;;12.70;65.70;100647.69;5068227;28;20059;-85
2021/10/28 09:33:08;;;;;;;11.60;10.15;;;;;;;12.67;65.60;100647.84;5070600;28;20044;-86
2021/10/28 09:47:51;;;;;;;20.42;12.73;;;;;;;12.83;64.72;100638.25;5071466;28;20132;-87
2021/10/28 09:50:24;;;;;;;19.17;13.10;;;;;;;12.98;64.09;100640.06;5067787;28;20041;-89
2021/10/28 09:58:41;;;;;;;15.95;11.40;;;;;;;13.05;64.41;100638.81;5061364;28;20091;-85
2021/10/28 10:01:36;;;;;;;19.70;12.27;;;;;;;12.96;64.44;100648.94;5070048;28;20036;-84
2021/10/28 10:04:06;;;;;;;16.35;11.57;;;;;;;13.07;63.67;100643.97;5066867;28;20514;-87
2021/10/28 10:06:38;;;;;;;18.73;12.65;;;;;;;13.10;63.34;100646.41;5072393;28;20051;-85
2021/10/28 10:09:06;;;;;;;18.83;11.85;;;;;;;13.29;63.74;100652.34;5070210;28;20037;-91
2021/10/28 10:11:33;;;;;;;23.20;11.73;;;;;;;13.19;63.47;100645.91;5055192;28;20067;-89
2021/10/28 10:14:02;;;;;;;18.10;11.40;;;;;;;13.43;63.04;100649.00;5072705;28;20178;-86
2021/10/28 10:16:31;;;;;;;16.92;11.52;;;;;;;13.39;62.42;100650.09;5061596;28;20037;-86
2021/10/28 10:19:01;;;;;;;22.38;12.10;;;;;;;13.31;62.65;100639.19;5065055;28;20085;-85
2021/10/28 10:21:32;;;;;;;18.70;13.57;;;;;;;13.43;62.33;100637.69;5057690;28;20044;-87
2021/10/28 11:03:03;;;;;;;23.77;13.52;;;;;;;13.51;61.70;100633.69;5044236;28;20508;-85
2021/10/28 11:28:32;;;;;;;22.45;14.20;;;;;;;14.86;56.38;100570.66;5070517;28;20095;-93
2021/10/28 12:24:33;;;;;;;28.88;17.48;;;;;;;15.34;52.99;100493.16;5072898;28;20083;-89
2021/10/28 12:44:45;;;;;;;26.63;16.45;;;;;;;15.41;52.26;100478.69;5076947;28;20478;-93
2021/10/28 12:55:23;;;;;;;21.88;14.82;;;;;;;15.53;50.13;100463.88;5071306;28;20041;-85
2021/10/28 13:35:01;;;;;;;26.38;17.05;;;;;;;15.63;50.98;100446.59;5070765;28;20490;-84
2021/10/28 14:21:15;;;;;;;30.73;17.17;;;;;;;15.46;50.11;100417.94;5071748;28;20037;-86
2021/10/28 14:59:54;;;;;;;30.27;18.20;;;;;;;15.13;51.72;100400.06;5010533;28;20751;-91
2021/10/28 16:21:49;;;;;;;29.67;16.88;;;;;;;12.69;64.30;100387.91;5064979;28;20073;-89
2021/10/28 16:23:26;;;;;;;27.65;16.48;;;;;;;12.27;65.78;100389.34;5069153;28;20127;-92
2021/10/28 16:25:53;;;;;;;34.22;17.77;;;;;;;12.16;66.23;100391.72;5058709;28;20072;-82
2021/10/28 16:28:21;;;;;;;39.10;18.17;;;;;;;12.07;66.47;100397.41;5057553;28;20540;-82
2021/10/28 16:30:48;;;;;;;30.83;18.13;;;;;;;12.09;66.30;100397.34;5059356;28;20045;-84
2021/10/28 16:33:15;;;;;;;30.30;16.52;;;;;;;12.05;66.43;100394.91;5068082;28;20064;-82
2021/10/28 16:35:43;;;;;;;30.05;17.20;;;;;;;12.05;66.45;100387.06;5066655;28;20037;-83
2021/10/28 16:38:10;;;;;;;38.70;17.67;;;;;;;11.96;66.65;100387.53;5061008;28;20095;-85
2021/10/28 16:40:38;;;;;;;30.20;16.90;;;;;;;11.89;67.09;100386.19;5063325;28;20198;-86
2021/10/28 16:43:05;;;;;;;32.80;17.42;;;;;;;11.87;67.22;100381.97;5060425;28;20032;-86
2021/10/28 16:45:32;;;;;;;32.33;17.75;;;;;;;11.87;67.28;100382.81;5063461;28;20114;-85
2021/10/28 16:47:59;;;;;;;47.72;20.38;;;;;;;11.75;67.81;100375.59;5058525;28;20041;-82
2021/10/28 16:50:26;;;;;;;34.95;19.05;;;;;;;11.82;67.60;100383.97;5058011;28;20041;-83
2021/10/28 16:52:53;;;;;;;32.03;18.83;;;;;;;11.75;67.50;100381.66;5062192;28;20037;-84
2021/10/28 16:55:19;;;;;;;37.47;22.77;;;;;;;11.73;67.76;100382.69;5072933;28;20052;-82
2021/10/28 16:57:46;;;;;;;36.97;20.20;;;;;;;11.74;67.79;100384.34;5069988;28;20466;-87
2021/10/28 17:00:13;;;;;;;33.90;18.88;;;;;;;11.52;68.66;100384.63;5072641;28;20040;-87
2021/10/28 17:02:41;;;;;;;36.92;21.60;;;;;;;11.59;68.43;100385.16;5064839;28;20048;-89
2021/10/28 17:05:09;;;;;;;38.17;19.80;;;;;;;11.50;68.68;100381.25;5062832;28;20513;-85
2021/10/28 17:07:36;;;;;;;32.80;17.63;;;;;;;11.57;68.53;100381.78;5059830;28;20079;-86
2021/10/28 17:10:04;;;;;;;38.40;18.98;;;;;;;11.49;68.68;100376.94;5057912;28;20099;-84
2021/10/28 17:12:31;;;;;;;33.13;17.52;;;;;;;11.52;68.46;100384.63;5059182;28;20037;-87
2021/10/28 17:14:58;;;;;;;39.50;19.80;;;;;;;11.50;68.52;100387.34;5055226;28;20041;-86
2021/10/28 17:17:25;;;;;;;39.80;21.90;;;;;;;11.44;68.55;100390.22;5058932;28;20463;-86
2021/10/28 17:20:06;;;;;;;37.22;19.10;;;;;;;11.47;68.38;100384.88;5059179;28;20048;-88
2021/10/28 17:22:35;;;;;;;31.13;18.67;;;;;;;11.41;68.73;100386.97;5059603;28;20040;-87
2021/10/28 17:25:05;;;;;;;36.13;17.98;;;;;;;11.40;68.90;100385.25;5057582;28;20041;-86
2021/10/28 17:27:33;;;;;;;35.15;18.73;;;;;;;11.41;68.72;100387.78;5062291;28;20067;-84
2021/10/28 17:30:03;;;;;;;34.05;17.17;;;;;;;11.34;69.07;100393.38;5063426;28;20052;-86
2021/10/28 17:32:31;;;;;;;30.58;17.40;;;;;;;11.36;69.04;100397.63;5078085;28;20094;-89
2021/10/28 17:34:58;;;;;;;35.10;18.65;;;;;;;11.33;69.28;100397.78;5082365;28;20064;-91
2021/10/28 17:37:25;;;;;;;41.15;19.48;;;;;;;11.35;69.07;100392.50;5069083;28;20106;-90
2021/10/28 17:39:52;;;;;;;46.70;20.67;;;;;;;11.31;69.40;100391.78;5066932;28;20044;-82
2021/10/28 17:42:21;;;;;;;34.58;18.88;;;;;;;11.34;69.21;100401.22;5072523;28;20106;-83
2021/10/28 17:44:53;;;;;;;37.50;20.80;;;;;;;11.25;69.44;100390.34;5073863;28;20040;-81
2021/10/28 17:47:20;;;;;;;36.60;19.67;;;;;;;11.28;69.56;100391.94;5063081;28;20062;-82
2021/10/28 17:49:48;;;;;;;37.47;20.45;;;;;;;11.31;69.35;100396.19;5067360;28;20041;-83
2021/10/28 17:52:34;;;;;;;36.53;20.30;;;;;;;11.20;69.67;100394.09;5075630;28;20051;-82
2021/10/28 17:55:03;;;;;;;40.33;19.42;;;;;;;11.18;69.89;100390.72;5075614;28;20153;-82
2021/10/28 17:57:30;;;;;;;31.73;19.30;;;;;;;11.20;69.84;100388.88;5069040;28;20491;-84
2021/10/28 17:59:56;;;;;;;41.65;23.02;;;;;;;11.23;69.69;100388.72;5071879;28;20040;-82
2021/10/28 18:02:23;;;;;;;37.00;22.23;;;;;;;11.09;70.36;100385.97;5075881;28;20166;-81
2021/10/28 18:04:51;;;;;;;33.47;19.17;;;;;;;11.10;70.11;100382.44;5078785;28;20044;-82
2021/10/28 18:07:19;;;;;;;36.90;21.33;;;;;;;11.01;70.78;100381.97;5075437;28;20041;-81
2021/10/28 18:09:46;;;;;;;39.22;20.42;;;;;;;11.01;70.40;100384.56;5069373;28;20040;-82
2021/10/28 18:12:14;;;;;;;42.75;20.27;;;;;;;11.04;70.35;100388.81;5073750;28;20078;-82
2021/10/28 18:14:40;;;;;;;38.20;21.50;;;;;;;11.03;70.40;100379.31;5075945;28;20450;-84
2021/10/28 18:17:08;;;;;;;36.97;19.85;;;;;;;10.95;70.51;100382.25;5070911;28;20498;-82
2021/10/28 18:19:35;;;;;;;29.80;17.90;;;;;;;11.02;70.58;100385.41;5068643;28;20098;-81
2021/10/28 18:22:02;;;;;;;38.08;19.52;;;;;;;10.94;70.48;100382.34;5069370;28;20044;-83
2021/10/28 18:24:29;;;;;;;33.35;19.77;;;;;;;11.05;70.23;100389.66;5072824;28;20040;-83
2021/10/28 18:26:56;;;;;;;36.83;21.10;;;;;;;10.97;70.62;100384.78;5075374;28;20128;-83
2021/10/28 18:29:23;;;;;;;37.55;19.20;;;;;;;10.97;70.88;100384.78;5067024;28;20043;-82
2021/10/28 18:31:50;;;;;;;36.92;19.77;;;;;;;10.96;70.98;100391.78;5075551;28;20049;-82
2021/10/28 18:34:17;;;;;;;28.15;19.05;;;;;;;10.99;70.85;100385.59;5079859;28;20040;-83
2021/10/28 18:36:45;;;;;;;28.50;17.52;;;;;;;10.99;70.57;100386.41;5078092;28;20099;-82
2021/10/28 18:39:13;;;;;;;28.83;17.10;;;;;;;10.96;70.87;100385.72;5078034;28;20135;-82
2021/10/28 18:41:42;;;;;;;30.20;17.05;;;;;;;10.85;71.12;100385.41;5073342;28;20059;-83
2021/10/28 18:44:10;;;;;;;24.65;17.92;;;;;;;10.97;70.66;100383.06;5070465;28;20091;-83
2021/10/28 18:46:37;;;;;;;29.80;17.33;;;;;;;10.91;71.01;100379.88;5076282;28;20093;-81
2021/10/28 18:49:04;;;;;;;28.88;17.92;;;;;;;10.94;70.91;100391.03;5072389;28;20055;-83
2021/10/28 18:51:33;;;;;;;23.77;15.95;;;;;;;10.86;71.25;100385.31;5078882;28;20548;-84
2021/10/28 18:54:01;;;;;;;27.90;16.55;;;;;;;10.80;71.55;100383.00;5071481;28;20040;-81
2021/10/28 18:56:28;;;;;;;28.55;16.02;;;;;;;10.79;71.65;100381.34;5077197;28;20105;-86
2021/10/28 18:58:55;;;;;;;30.00;16.45;;;;;;;10.93;71.20;100383.28;5071853;28;20544;-83
2021/10/28 19:01:23;;;;;;;26.25;16.75;;;;;;;10.89;71.18;100379.97;5073242;28;20036;-82
2021/10/28 19:03:53;;;;;;;28.35;15.35;;;;;;;10.85;71.38;100378.41;5071339;28;20529;-84
2021/10/28 19:06:21;;;;;;;28.17;17.10;;;;;;;10.78;71.52;100377.03;5078391;28;20041;-85
2021/10/28 19:08:48;;;;;;;25.88;15.18;;;;;;;10.80;71.59;100377.81;5079741;28;20052;-84
2021/10/28 19:11:16;;;;;;;23.17;13.80;;;;;;;10.76;71.83;100373.69;5077810;28;20056;-85
2021/10/28 19:13:45;;;;;;;26.48;17.10;;;;;;;10.79;71.79;100368.28;5070597;28;20063;-83
2021/10/28 19:16:14;;;;;;;30.15;17.23;;;;;;;10.74;71.83;100365.91;5070750;28;20090;-80
2021/10/28 19:18:43;;;;;;;22.02;15.13;;;;;;;10.71;71.83;100365.22;5074393;28;20055;-82
2021/10/28 19:21:10;;;;;;;25.60;16.25;;;;;;;10.71;71.98;100360.00;5071794;28;20028;-80
2021/10/28 19:23:38;;;;;;;30.67;15.52;;;;;;;10.63;72.30;100368.19;5069658;28;20524;-83
2021/10/28 19:26:06;;;;;;;23.75;14.40;;;;;;;10.63;72.37;100364.75;5069584;28;20044;-80
2021/10/28 19:28:34;;;;;;;22.40;15.15;;;;;;;10.67;72.20;100367.13;5068930;28;20140;-81
2021/10/28 19:31:17;;;;;;;25.08;13.38;;;;;;;10.69;71.98;100373.09;5071399;28;20041;-83
2021/10/28 19:33:47;;;;;;;21.00;14.73;;;;;;;10.69;72.21;100360.06;5071958;28;20043;-82
2021/10/28 19:36:28;;;;;;;24.73;14.77;;;;;;;10.75;71.78;100357.16;5066661;28;20041;-82
2021/10/28 19:41:53;;;;;;;23.95;14.85;;;;;;;10.67;72.12;100355.88;5067254;28;20032;-83
2021/10/28 19:47:07;;;;;;;24.70;14.95;;;;;;;10.70;72.07;100353.94;5065956;28;20041;-83
2021/10/28 19:49:34;;;;;;;20.70;15.00;;;;;;;10.63;72.24;100351.72;5067336;28;20036;-81
2021/10/28 19:52:04;;;;;;;24.52;16.30;;;;;;;10.65;72.41;100352.47;5071408;28;20073;-81
2021/10/28 19:54:35;;;;;;;25.00;14.82;;;;;;;10.58;72.42;100351.09;5071411;28;20041;-81
2021/10/28 19:57:01;;;;;;;24.20;15.40;;;;;;;10.53;72.71;100355.69;5067699;28;20041;-81
2021/10/28 19:59:33;;;;;;;27.70;16.23;;;;;;;10.65;72.38;100355.06;5067566;28;20037;-83
2021/10/28 20:02:06;;;;;;;21.98;15.88;;;;;;;10.62;72.51;100360.47;5070711;28;20078;-81
2021/10/28 20:04:52;;;;;;;42.63;19.58;;;;;;;10.57;72.60;100367.66;5069506;28;20086;-82
2021/10/28 20:07:27;;;;;;;26.40;16.30;;;;;;;10.51;73.28;100371.41;5068431;28;20532;-80
2021/10/28 20:20:40;;;;;;;35.97;18.17;;;;;;;10.54;73.09;100371.22;5068613;28;20102;-79
2021/10/28 20:23:07;;;;;;;27.70;14.93;;;;;;;10.49;73.35;100375.81;5064133;28;20061;-77
2021/10/28 20:25:34;;;;;;;28.83;19.45;;;;;;;10.48;73.39;100368.91;5065862;28;20511;-79
2021/10/28 20:28:04;;;;;;;26.27;15.95;;;;;;;10.60;72.89;100370.09;5064239;28;20087;-79